Historique des stations

Station météo de Saint-Maur

Altitude de la station : 155 m







Données météorologiques pour le 25/02/2021
Date
Heure
Températures Humidité Point de rosée Vitesse
du vent
Direction Rafales Windchill Pression Pluviométrie
Cumul
Date
Heure
Températures Humidité Point de rosée Vitesse
du vent
Direction Rafales Windchill Pression Pluviométrie
Cumul
25/02/2021 17:4416.8 °C54 %7.2 °C-SSO23 km/h16.7 1028 hPa-
25/02/2021 17:2917.3 °C52 %7.2 °C-SSO23 km/h17.2 1028 hPa-
25/02/2021 17:1417.7 °C50 %7.2 °C6 km/hSO23 km/h17.8 1028 hPa-
25/02/2021 16:5918.1 °C49 %7.2 °C6 km/hOSO23 km/h18.3 1028 hPa-
25/02/2021 16:4418.5 °C47 %6.7 °C14 km/hSSO23 km/h17.2 1028 hPa-
25/02/2021 16:2918.5 °C47 %6.7 °C-SO23 km/h18.3 1028 hPa-
25/02/2021 16:1418.4 °C47 %6.7 °C6 km/hSO23 km/h18.3 1028 hPa-
25/02/2021 15:5918.4 °C47 %6.7 °C-SSO23 km/h18.3 1028 hPa-
25/02/2021 15:4418.6 °C45 %6.1 °C8 km/hSSO23 km/h18.9 1028 hPa-
25/02/2021 15:2919.2 °C44 %6.7 °C10 km/hSSO23 km/h19.4 1028 hPa-
25/02/2021 15:1419.5 °C44 %6.7 °C6 km/hSO23 km/h19.4 1028 hPa-
25/02/2021 14:5919.5 °C45 %7.2 °C11 km/hSSO23 km/h18.9 1027 hPa-
25/02/2021 14:4419.4 °C44 %6.7 °C10 km/hSO24 km/h19.4 1027 hPa-
25/02/2021 14:2919.0 °C45 %6.7 °C11 km/hSSO24 km/h18.3 1027 hPa-
25/02/2021 14:1418.7 °C44 %6.1 °C6 km/hOSO24 km/h18.9 1027 hPa-
25/02/2021 13:5918.7 °C43 %5.6 °C8 km/hSO24 km/h18.9 1027 hPa-
25/02/2021 13:4419.1 °C41 %5.6 °C16 km/hSSO24 km/h17.8 1028 hPa-
25/02/2021 13:2919.1 °C43 %6.1 °C6 km/hOSO24 km/h18.9 1028 hPa-
25/02/2021 13:1419.1 °C41 %5.6 °C6 km/hSSO24 km/h18.9 1028 hPa-
25/02/2021 12:5919.4 °C40 %5.6 °C6 km/hSO24 km/h19.4 1028 hPa-
25/02/2021 12:4419.1 °C38 %4.4 °C11 km/hSSO24 km/h18.3 1028 hPa-
25/02/2021 12:3018.6 °C39 %4.4 °C13 km/hSSO23 km/h17.8 1028 hPa-
25/02/2021 12:1518.2 °C40 %4.4 °C18 km/hSO21 km/h16.7 1028 hPa-
25/02/2021 12:0017.8 °C43 %5.0 °C5 km/hSO19 km/h17.8 1028 hPa-
25/02/2021 11:4517.7 °C41 %4.4 °C11 km/hS18 km/h17.2 1028 hPa-
25/02/2021 11:3017.7 °C40 %3.9 °C11 km/hSSO18 km/h17.2 1028 hPa-
25/02/2021 11:1416.9 °C42 %3.9 °C13 km/hSSO18 km/h16.1 1028 hPa-
25/02/2021 10:5915.9 °C44 %3.3 °C10 km/hSO18 km/h16.1 1028 hPa-
25/02/2021 10:4414.2 °C59 %6.1 °C-S11 km/h14.4 1028 hPa-
25/02/2021 10:2912.7 °C69 %7.2 °C-SE11 km/h12.8 1028 hPa-
25/02/2021 10:1411.4 °C74 %7.2 °C-ESE11 km/h11.7 1028 hPa-
25/02/2021 09:5910.2 °C76 %6.1 °C-ESE11 km/h10.0 1028 hPa-
25/02/2021 09:448.7 °C81 %5.6 °C-ESE11 km/h8.9 1028 hPa-
25/02/2021 09:297.4 °C83 %4.4 °C-ESE11 km/h7.2 1028 hPa-
25/02/2021 09:146.2 °C86 %3.9 °C-ESE11 km/h6.1 1027 hPa-
25/02/2021 08:595.6 °C87 %3.3 °C-ESE11 km/h5.6 1027 hPa-
25/02/2021 08:444.9 °C87 %2.8 °C-ESE11 km/h5.0 1027 hPa-
25/02/2021 08:294.7 °C86 %2.8 °C-ESE11 km/h4.4 1027 hPa-
25/02/2021 08:144.6 °C84 %2.2 °C-ESE11 km/h4.4 1027 hPa-
25/02/2021 07:594.6 °C83 %2.2 °C-ESE11 km/h4.4 1027 hPa-
25/02/2021 07:454.7 °C82 %1.7 °C-ESE11 km/h5.0 1027 hPa-
25/02/2021 07:304.9 °C81 %2.2 °C-ESE11 km/h5.0 1026 hPa-
25/02/2021 07:155.2 °C79 %1.7 °C-ESE11 km/h5.0 1026 hPa-
25/02/2021 07:005.4 °C77 %1.7 °C-ESE11 km/h5.6 1026 hPa-
25/02/2021 06:455.8 °C76 %1.7 °C-ESE11 km/h5.6 1026 hPa-
25/02/2021 06:296.1 °C75 %2.2 °C-ESE11 km/h6.1 1026 hPa-
25/02/2021 06:146.4 °C72 %1.7 °C-ESE11 km/h6.7 1026 hPa-
25/02/2021 05:596.9 °C70 %1.7 °C-ESE11 km/h6.7 1026 hPa-
25/02/2021 05:447.3 °C68 %1.7 °C-ESE11 km/h7.2 1026 hPa-
25/02/2021 05:297.7 °C68 %2.2 °C-ESE11 km/h7.8 1026 hPa-
25/02/2021 05:147.9 °C67 %2.2 °C-ESE11 km/h7.8 1026 hPa-
25/02/2021 04:598.3 °C65 %2.2 °C-SSE11 km/h8.3 1026 hPa-
25/02/2021 04:448.7 °C65 %2.2 °C-SSE11 km/h8.9 1026 hPa-
25/02/2021 04:298.9 °C63 %2.2 °C-SSE11 km/h8.9 1026 hPa-
25/02/2021 04:149.0 °C63 %2.2 °C-SSE11 km/h8.9 1026 hPa-
25/02/2021 03:599.2 °C63 %2.2 °C-SSE11 km/h9.4 1026 hPa-
25/02/2021 03:449.2 °C63 %2.2 °C-SSE11 km/h9.4 1026 hPa-
25/02/2021 03:299.4 °C64 %2.8 °C-SSE11 km/h9.4 1026 hPa-
25/02/2021 03:149.5 °C64 %2.8 °C-SSE11 km/h9.4 1026 hPa-
25/02/2021 02:599.6 °C64 %2.8 °C-SSE11 km/h9.4 1026 hPa-
25/02/2021 02:449.9 °C64 %3.3 °C-SSE11 km/h10.0 1027 hPa-
25/02/2021 02:2910.2 °C64 %3.3 °C-SSE11 km/h10.0 1027 hPa-
25/02/2021 02:1410.3 °C64 %3.9 °C-SSE11 km/h10.6 1027 hPa-
25/02/2021 01:5910.2 °C64 %3.3 °C-SSE11 km/h10.0 1027 hPa-
25/02/2021 01:449.8 °C67 %3.9 °C-SSE11 km/h10.0 1027 hPa-
25/02/2021 01:299.4 °C71 %4.4 °C5 km/hSSE11 km/h8.9 1027 hPa-
25/02/2021 01:148.8 °C77 %5.0 °C2 km/hSSE11 km/h8.9 1027 hPa-
25/02/2021 00:598.2 °C83 %5.6 °C3 km/hSSE11 km/h7.8 1027 hPa-
25/02/2021 00:447.9 °C87 %6.1 °C2 km/hSSE6 km/h7.8 1027 hPa-
25/02/2021 00:308.1 °C88 %6.1 °C3 km/h--7.8 1027 hPa-
25/02/2021 00:158.2 °C88 %6.1 °C---8.3 1027 hPa-
25/02/2021 00:008.3 °C88 %6.7 °C---8.3 1027 hPa-


Minima :

Température : 4.6 °C
Humidité : 38 %
Point de rosée : 1.7 °C
Vent moyen : 2 km/h
Windchill : 4.4
Pression atm. : 1026 hPa
Maxima :

Température : 19.5 °C
Humidité : 88 %
Point de rosée : 7.2 °C
Vent moyen : 18 km/h
Windchill : 19.4
Pression atm. : 1028 hPa
Rafales max : 24 km/h
Cumul de pluie sur 24H : 0 mm

Saint-Maur est une commune du département Indre (36).
La station météorologique du réseau de l'association la plus proche de Saint-Maur est celle de Etrechet



Icône Facebook Association Météo Centre Icône Twitter Association Météo Centre Icône Chaîne Youtube Association Météo Centre Icône contact Association Météo Centre Icône Insta Association Météo Centre